Atlantic Mine, Michigan
Current Conditions -  °F | °C
As of 10:53 PM on Friday 24 Oct 2014 (Local Time) from KCMX Reporting Station
Clear Clear  
Wind Chill: 59°   Ceiling: Unl
Heat Index: 59°   Visibility: 10mi
Dew Point: 49°   Wind: 14mph
Humidity: 69%   Direction: 240°WSW
Pressure: 29.68"   Gusts: 24mph
Location:  47.1°N, 88.63°W
Report Text: KCMX 250253Z AUTO 24012G21KT 10SM CLR 15/09 A2968 RMK AO2 SLP055 T01500094 57016
Loading
Personal Weather Stations






























Interactive Weather Map New forecast layout! Learn more

10-Day Weather Forecast

Advertisements
Track Severe Weather on mobile